Gulf Breeze, FL (32561)

11:21 AM CST on December 20, 2014 (GMT -0600)
Sawgrass at Tiger Point | Change Station
CLOSE
Current Station
Personal Weather Station
Location: Gulf Breeze, FL
Elevation: 45 ft
Nearby Weather Stations

Elev 45 ft 30.38 °N, 87.06 °W | Updated 2 seconds ago

Mostly Cloudy
Mostly Cloudy
51.2 °F
Feels Like 51.2 °F
N
11.0
Wind Variable Wind from NNE
Gusts 21.0 mph

Today
High -- | Low -- °F
--% Chance of Precip.
Yesterday
High -- | Low -- °F
Precip. -- in
6:40 AM 4:51 PM
Waning Crescent, 2% visible
Pressure 30.15 in
Visibility 4.0 miles
Clouds Mostly Cloudy 700 ft
Overcast 1600 ft
Dew Point 49 °F
Humidity 93%
Rainfall 0.05 in
Snow Depth Not available.
UV 1.0 out of 12
Pollen .50 out of 12
Air Quality Not available.
Flu Activity Not available.
METAR KPNS 201653Z 04005KT 4SM -RA BR BKN007 OVC016 08/08 A3014 RMK AO2 RAB1559 SLP210 P0001 T00830083

More Conditions Fewer Conditions

Pressure 30.15 in
Visibility 4.0 miles
Clouds Mostly Cloudy 700 ft
Overcast 1600 ft
Dew Point 49 °F
Humidity 93%
Rainfall 0.05 in
Snow Depth Not available.
UV 1.0 out of 12
Pollen .50 out of 12
Air Quality Not available.
Flu Activity Not available.
METAR KPNS 201653Z 04005KT 4SM -RA BR BKN007 OVC016 08/08 A3014 RMK AO2 RAB1559 SLP210 P0001 T00830083

More Conditions Fewer Conditions

10-Day Weather Forecast

Almanac

Astronomy

Dec. 20, 2014 Rise Set
Actual Time
Civil Twilight
Nautical Twilight
Astronomical Twilight
Moon
Length of Visible Light
Length of Day
Tomorrow will be .
, % of the Moon is Illuminated

Today's Extremes

State Highs State Lows

Community

WunderPhotos

Upload Photos

1,779,226 photos uploaded!

WunderBlogs® & News

Nearby

Air Quality

  Air Quality AQ Index Pollutant
Not available.

Snow Depth

Station Depth Elevation

Earthquake Activity

City Distance Mag. Time & Date
Minimum magnitude displayed is 2.5.

Coastal Water Temperatures

Place Temperature

Nearby Weather Stations